TimeCDT,TemperatureF,Dew PointF,Humidity,Sea Level PressureIn,VisibilityMPH,Wind Direction,Wind SpeedMPH,Gust SpeedMPH,PrecipitationIn,Events,Conditions,WindDirDegrees,DateUTC
12:15 AM,48.2,44.6,87,30.13,10.0,Calm,Calm,-,N/A,,Clear,0,2013-10-24 05:15:00
12:35 AM,48.2,44.6,87,30.13,10.0,Calm,Calm,-,N/A,,Clear,0,2013-10-24 05:35:00
12:55 AM,48.2,44.6,87,30.12,10.0,Calm,Calm,-,N/A,,Clear,0,2013-10-24 05:55:00
1:15 AM,48.2,44.6,87,30.12,10.0,Calm,Calm,-,N/A,,Clear,0,2013-10-24 06:15:00
1:35 AM,46.4,44.6,93,30.11,10.0,SSE,3.5,-,N/A,,Clear,150,2013-10-24 06:35:00
1:55 AM,48.2,44.6,87,30.11,10.0,SSE,3.5,-,N/A,,Clear,160,2013-10-24 06:55:00
2:15 AM,46.4,44.6,93,30.11,10.0,SSE,4.6,-,N/A,,Clear,160,2013-10-24 07:15:00
2:35 AM,46.4,44.6,93,30.10,10.0,SSE,4.6,-,N/A,,Clear,160,2013-10-24 07:35:00
2:55 AM,46.4,44.6,93,30.10,10.0,SSE,3.5,-,N/A,,Clear,160,2013-10-24 07:55:00
3:15 AM,46.4,44.6,93,30.10,10.0,SSE,4.6,-,N/A,,Clear,150,2013-10-24 08:15:00
3:35 AM,46.4,44.6,93,30.10,10.0,South,4.6,-,N/A,,Clear,170,2013-10-24 08:35:00
3:55 AM,48.2,44.6,87,30.10,10.0,South,3.5,-,N/A,,Clear,180,2013-10-24 08:55:00
4:15 AM,46.4,44.6,93,30.10,10.0,South,3.5,-,N/A,,Clear,170,2013-10-24 09:15:00
4:35 AM,46.4,42.8,87,30.11,10.0,Calm,Calm,-,N/A,,Clear,0,2013-10-24 09:35:00
4:55 AM,48.2,44.6,87,30.11,10.0,SSE,6.9,-,N/A,,Clear,150,2013-10-24 09:55:00
5:15 AM,48.2,42.8,82,30.11,10.0,South,3.5,-,N/A,,Clear,180,2013-10-24 10:15:00
5:35 AM,46.4,42.8,87,30.12,10.0,Calm,Calm,-,N/A,,Clear,0,2013-10-24 10:35:00
5:55 AM,46.4,42.8,87,30.13,10.0,Calm,Calm,-,N/A,,Clear,0,2013-10-24 10:55:00
6:15 AM,46.4,42.8,87,30.14,10.0,Calm,Calm,-,N/A,,Clear,0,2013-10-24 11:15:00
6:35 AM,44.6,42.8,93,30.14,10.0,South,4.6,-,N/A,,Clear,190,2013-10-24 11:35:00
6:55 AM,44.6,42.8,93,30.15,10.0,South,4.6,-,N/A,,Clear,170,2013-10-24 11:55:00
7:15 AM,46.4,42.8,87,30.16,10.0,East,3.5,-,N/A,,Clear,80,2013-10-24 12:15:00
7:35 AM,44.6,42.8,93,30.17,10.0,Calm,Calm,-,N/A,,Clear,0,2013-10-24 12:35:00
7:55 AM,46.4,44.6,93,30.18,10.0,South,3.5,-,N/A,,Clear,170,2013-10-24 12:55:00
8:15 AM,51.8,46.4,82,30.19,10.0,SSE,4.6,-,N/A,,Clear,150,2013-10-24 13:15:00
8:35 AM,53.6,48.2,82,30.21,10.0,SE,4.6,-,N/A,,Clear,140,2013-10-24 13:35:00
8:55 AM,55.4,46.4,72,30.22,10.0,SE,5.8,-,N/A,,Clear,140,2013-10-24 13:55:00
9:15 AM,57.2,48.2,72,30.23,10.0,SSE,8.1,-,N/A,,Clear,150,2013-10-24 14:15:00
9:35 AM,60.8,48.2,63,30.23,10.0,South,9.2,-,N/A,,Clear,170,2013-10-24 14:35:00
9:55 AM,62.6,48.2,59,30.23,10.0,South,9.2,-,N/A,,Clear,190,2013-10-24 14:55:00
10:15 AM,64.4,48.2,56,30.23,10.0,South,9.2,-,N/A,,Clear,190,2013-10-24 15:15:00
10:35 AM,66.2,48.2,52,30.23,10.0,SSW,11.5,-,N/A,,Clear,200,2013-10-24 15:35:00
10:55 AM,68.0,48.2,49,30.22,10.0,SSW,10.4,16.1,N/A,,Clear,200,2013-10-24 15:55:00
11:15 AM,69.8,50.0,49,30.22,10.0,South,10.4,-,N/A,,Clear,190,2013-10-24 16:15:00
11:35 AM,71.6,50.0,46,30.23,10.0,SSW,8.1,-,N/A,,Clear,200,2013-10-24 16:35:00
11:55 AM,71.6,51.8,50,30.22,10.0,SSW,8.1,-,N/A,,Clear,210,2013-10-24 16:55:00
12:15 PM,71.6,51.8,50,30.21,10.0,SW,10.4,-,N/A,,Clear,230,2013-10-24 17:15:00
12:35 PM,73.4,51.8,47,30.20,10.0,WSW,10.4,16.1,N/A,,Clear,240,2013-10-24 17:35:00
12:55 PM,73.4,51.8,47,30.19,10.0,SW,8.1,-,N/A,,Clear,220,2013-10-24 17:55:00
1:15 PM,75.2,53.6,47,30.19,10.0,WSW,8.1,-,N/A,,Clear,250,2013-10-24 18:15:00
1:35 PM,75.2,53.6,47,30.18,10.0,West,10.4,-,N/A,,Clear,260,2013-10-24 18:35:00
1:55 PM,75.2,55.4,50,30.17,10.0,SW,9.2,-,N/A,,Clear,220,2013-10-24 18:55:00
2:15 PM,75.2,55.4,50,30.17,10.0,SSW,9.2,-,N/A,,Clear,210,2013-10-24 19:15:00
2:35 PM,77.0,55.4,47,30.16,10.0,WSW,9.2,-,N/A,,Clear,250,2013-10-24 19:35:00
2:55 PM,77.0,53.6,44,30.16,10.0,West,10.4,-,N/A,,Clear,270,2013-10-24 19:55:00
3:15 PM,78.8,53.6,42,30.16,10.0,WNW,6.9,-,N/A,,Clear,290,2013-10-24 20:15:00
3:35 PM,78.8,53.6,42,30.15,10.0,West,8.1,16.1,N/A,,Clear,280,2013-10-24 20:35:00
3:55 PM,78.8,53.6,42,30.16,10.0,WNW,6.9,-,N/A,,Clear,290,2013-10-24 20:55:00
4:15 PM,78.8,53.6,42,30.16,10.0,West,6.9,-,N/A,,Clear,280,2013-10-24 21:15:00
4:35 PM,78.8,53.6,42,30.16,10.0,West,5.8,-,N/A,,Clear,260,2013-10-24 21:35:00
4:55 PM,78.8,53.6,42,30.16,10.0,West,5.8,-,N/A,,Clear,280,2013-10-24 21:55:00
5:15 PM,77.0,55.4,47,30.16,10.0,West,3.5,-,N/A,,Clear,270,2013-10-24 22:15:00
5:35 PM,77.0,55.4,47,30.16,10.0,Calm,Calm,-,N/A,,Clear,0,2013-10-24 22:35:00
5:55 PM,75.2,57.2,53,30.16,10.0,Calm,Calm,-,N/A,,Clear,0,2013-10-24 22:55:00
6:15 PM,71.6,59.0,64,30.16,10.0,Calm,Calm,-,N/A,,Clear,0,2013-10-24 23:15:00
6:35 PM,68.0,59.0,73,30.17,10.0,Calm,Calm,-,N/A,,Clear,0,2013-10-24 23:35:00
6:55 PM,64.4,57.2,77,30.17,10.0,North,5.8,-,N/A,,Clear,10,2013-10-24 23:55:00
7:15 PM,66.2,57.2,73,30.18,10.0,NNE,4.6,-,N/A,,Clear,30,2013-10-25 00:15:00
7:35 PM,66.2,57.2,73,30.19,10.0,NNE,5.8,-,N/A,,Clear,30,2013-10-25 00:35:00
7:55 PM,64.4,55.4,73,30.20,10.0,North,5.8,-,N/A,,Clear,10,2013-10-25 00:55:00
8:15 PM,64.4,55.4,73,30.21,10.0,NNE,4.6,-,N/A,,Clear,30,2013-10-25 01:15:00
8:35 PM,64.4,55.4,73,30.22,10.0,NNE,4.6,-,N/A,,Clear,30,2013-10-25 01:35:00
8:55 PM,64.4,55.4,73,30.23,10.0,NE,4.6,-,N/A,,Clear,40,2013-10-25 01:55:00
9:15 PM,62.6,53.6,72,30.23,10.0,NNE,5.8,-,N/A,,Clear,30,2013-10-25 02:15:00
9:35 PM,62.6,53.6,72,30.24,10.0,NNE,6.9,-,N/A,,Clear,20,2013-10-25 02:35:00
9:55 PM,60.8,53.6,77,30.25,10.0,NNE,8.1,-,N/A,,Clear,20,2013-10-25 02:55:00
10:15 PM,60.8,51.8,72,30.26,10.0,NNE,6.9,-,N/A,,Clear,20,2013-10-25 03:15:00
10:35 PM,60.8,51.8,72,30.26,10.0,NNE,6.9,-,N/A,,Clear,20,2013-10-25 03:35:00
10:55 PM,60.8,51.8,72,30.27,10.0,NNE,6.9,-,N/A,,Clear,20,2013-10-25 03:55:00
11:15 PM,59.0,51.8,77,30.27,10.0,NNE,6.9,-,N/A,,Clear,20,2013-10-25 04:15:00
11:35 PM,59.0,51.8,77,30.27,10.0,NNE,8.1,-,N/A,,Clear,20,2013-10-25 04:35:00
11:55 PM,57.2,50.0,77,30.28,10.0,North,8.1,-,N/A,,Clear,10,2013-10-25 04:55:00